This is the latest recevied weather packets stored in our database for station/object WI5ARD. If no packets are shown the sender has not sent any weather packets the latest 10 day(s).
| Time | Temp. | Humidity | Pressure | Rain* | Wind** | Luminosity | Snow |
|---|---|---|---|---|---|---|---|
| 1777984822 | 16.11° C | 94% | 1014.8 hPa | 0 mm | - | 98 W/m² | - |
| 1777983921 | 15.56° C | 95% | 1014.6 hPa | 0 mm | - | 95 W/m² | - |
| 1777982120 | 15° C | 94% | 1014.3 hPa | 0 mm | - | 53 W/m² | - |
| 1777980919 | 14.44° C | 93% | 1014.3 hPa | 0 mm | - | 16 W/m² | - |
| 1777980322 | 13.89° C | 93% | 1014.2 hPa | 0 mm | - | 9 W/m² | - |
| 1777979118 | 13.89° C | 93% | 1014.2 hPa | 0 mm | - | 0 W/m² | - |
| 1777978518 | 13.89° C | 92% | 1014.3 hPa | 0 mm | - | 0 W/m² | - |
| 1777977038 | 13.89° C | 92% | 1014.2 hPa | 0 mm | - | 0 W/m² | - |
| 1777976422 | 13.89° C | 92% | 1014.3 hPa | 0 mm | - | 0 W/m² | - |
| 1777975240 | 13.89° C | 91% | 1014.3 hPa | 0 mm | - | 0 W/m² | - |
| 1777974922 | 13.89° C | 91% | 1014.3 hPa | 0 mm | - | 0 W/m² | - |
| 1777974336 | 13.89° C | 92% | 1014.3 hPa | 0 mm | - | 0 W/m² | - |
| 1777973436 | 13.89° C | 92% | 1014.4 hPa | 0 mm | - | 0 W/m² | - |
| 1777972220 | 13.89° C | 91% | 1014.2 hPa | 0 mm | - | 0 W/m² | - |
| 1777968618 | 13.89° C | 90% | 1014.4 hPa | 0 mm | - | 0 W/m² | - |
| 1777967721 | 13.89° C | 89% | 1014.5 hPa | 0 mm | - | 0 W/m² | - |
| 1777966520 | 13.89° C | 88% | 1014.7 hPa | 0 mm | - | 0 W/m² | - |
| 1777964721 | 14.44° C | 88% | 1015 hPa | 0 mm | - | 0 W/m² | - |
| 1777963536 | 14.44° C | 86% | 1015.3 hPa | 0 mm | - | 0 W/m² | - |
| 1777962021 | 14.44° C | 85% | 1015.4 hPa | 0 mm | - | 0 W/m² | - |
| 1777960220 | 15° C | 84% | 1015.4 hPa | 0 mm | - | 0 W/m² | - |
| 1777958420 | 15° C | 82% | 1015.4 hPa | 0 mm | - | 0 W/m² | - |
| 1777954821 | 16.67° C | 77% | 1015.9 hPa | 0 mm | - | 0 W/m² | - |
| 1777954550 | 16.67° C | 76% | 1015.9 hPa | 0 mm | - | 0 W/m² | - |
| 1777954222 | 16.67° C | 76% | 1015.9 hPa | 0 mm | - | 0 W/m² | - |
* Rain latest hour (hover to see other rain measurements)
** Current wind speed in m/s (hover to see current wind gust speed)